JST500 YMML-YSSY
Flight info
| Callsign | JST500 |
|---|---|
| Flight time | 1h 3m |
| Altitude | 35000 |
| Route | DOSEL Y59 RIVET |
| Aircraft | A321/M-SDE3FGHIRWY/LB1 |
Departure
| Time | 2026-04-30 17:41 |
|---|---|
| Airport | Melbourne Airport (YMML) |
Arrival
| Time | 2026-04-30 18:45 |
|---|---|
| Airport | Sydney Kingsford Smith International Airport (YSSY) |
| Time | Latitude | Longitude | Altitude | Speed | Heading |
|---|---|---|---|---|---|
| 2026-04-30 17:39 | -37.50702 | 144.87371 | 8868 ft | 272 kts | 22° |
| 2026-04-30 17:41 | -37.37800 | 145.02093 | 12805 ft | 359 kts | 52° |
| 2026-04-30 17:42 | -37.34870 | 145.07245 | 14041 ft | 366 kts | 52° |
| 2026-04-30 17:42 | -37.30378 | 145.15175 | 15742 ft | 377 kts | 52° |
| 2026-04-30 17:43 | -37.27308 | 145.20585 | 16899 ft | 383 kts | 51° |
| 2026-04-30 17:44 | -37.22609 | 145.28835 | 18597 ft | 391 kts | 51° |
| 2026-04-30 17:44 | -37.17820 | 145.37232 | 20007 ft | 399 kts | 51° |
| 2026-04-30 17:46 | -37.09619 | 145.51546 | 22282 ft | 411 kts | 51° |
| 2026-04-30 17:47 | -37.02869 | 145.63292 | 24042 ft | 420 kts | 51° |
| 2026-04-30 17:48 | -36.95948 | 145.75275 | 25432 ft | 429 kts | 51° |
| 2026-04-30 17:48 | -36.90642 | 145.84433 | 26416 ft | 436 kts | 51° |
| 2026-04-30 17:49 | -36.83459 | 145.96803 | 27713 ft | 446 kts | 51° |
| 2026-04-30 17:50 | -36.76081 | 146.09448 | 28899 ft | 455 kts | 51° |
| 2026-04-30 17:51 | -36.71055 | 146.18029 | 29651 ft | 461 kts | 51° |
| 2026-04-30 17:52 | -36.65377 | 146.27721 | 30521 ft | 465 kts | 51° |
| 2026-04-30 17:53 | -36.55867 | 146.43886 | 32282 ft | 460 kts | 50° |
| 2026-04-30 17:54 | -36.48322 | 146.56644 | 33696 ft | 456 kts | 50° |
| 2026-04-30 17:55 | -36.40823 | 146.69279 | 34917 ft | 454 kts | 50° |
| 2026-04-30 17:56 | -36.33326 | 146.81878 | 35387 ft | 451 kts | 50° |
| 2026-04-30 17:58 | -36.22160 | 147.00541 | 35391 ft | 450 kts | 50° |
| 2026-04-30 18:00 | -36.07207 | 147.25363 | 35404 ft | 450 kts | 50° |
| 2026-04-30 18:01 | -35.97828 | 147.40844 | 35408 ft | 450 kts | 50° |
| 2026-04-30 18:02 | -35.86549 | 147.59363 | 35418 ft | 450 kts | 51° |
| 2026-04-30 18:04 | -35.75253 | 147.77832 | 35426 ft | 449 kts | 51° |
| 2026-04-30 18:06 | -35.60168 | 148.02314 | 35434 ft | 449 kts | 50° |
| 2026-04-30 18:08 | -35.46950 | 148.23624 | 35432 ft | 449 kts | 51° |
| 2026-04-30 18:10 | -35.31742 | 148.47999 | 35438 ft | 450 kts | 51° |
| 2026-04-30 18:11 | -35.18398 | 148.69255 | 35448 ft | 450 kts | 51° |
| 2026-04-30 18:12 | -35.12734 | 148.78229 | 35333 ft | 451 kts | 51° |
| 2026-04-30 18:13 | -35.08934 | 148.84225 | 34858 ft | 448 kts | 51° |
| 2026-04-30 18:13 | -35.03842 | 148.92259 | 34200 ft | 447 kts | 51° |
| 2026-04-30 18:14 | -34.99419 | 148.99221 | 33581 ft | 447 kts | 51° |
| 2026-04-30 18:15 | -34.93696 | 149.08215 | 32806 ft | 448 kts | 51° |
| 2026-04-30 18:15 | -34.87980 | 149.17191 | 32045 ft | 445 kts | 51° |
| 2026-04-30 18:16 | -34.84200 | 149.23111 | 31538 ft | 441 kts | 51° |
| 2026-04-30 18:16 | -34.80440 | 149.28968 | 31066 ft | 437 kts | 51° |
| 2026-04-30 18:17 | -34.78570 | 149.31877 | 30825 ft | 436 kts | 51° |
| 2026-04-30 18:17 | -34.76704 | 149.34781 | 30591 ft | 434 kts | 51° |
| 2026-04-30 18:17 | -34.73230 | 149.40743 | 30043 ft | 432 kts | 61° |
| 2026-04-30 18:18 | -34.71831 | 149.43965 | 29768 ft | 430 kts | 61° |
| 2026-04-30 18:18 | -34.70441 | 149.47177 | 29497 ft | 429 kts | 61° |
| 2026-04-30 18:18 | -34.69052 | 149.50374 | 29225 ft | 427 kts | 61° |
| 2026-04-30 18:18 | -34.67666 | 149.53555 | 28955 ft | 425 kts | 61° |
| 2026-04-30 18:19 | -34.66285 | 149.56723 | 28690 ft | 423 kts | 61° |
| 2026-04-30 18:19 | -34.64909 | 149.59875 | 28429 ft | 422 kts | 61° |
| 2026-04-30 18:19 | -34.63536 | 149.63015 | 28160 ft | 420 kts | 61° |
| 2026-04-30 18:19 | -34.62192 | 149.66082 | 27721 ft | 415 kts | 61° |
| 2026-04-30 18:20 | -34.60839 | 149.69159 | 27219 ft | 412 kts | 61° |
| 2026-04-30 18:20 | -34.59492 | 149.72217 | 26721 ft | 408 kts | 61° |
| 2026-04-30 18:20 | -34.58161 | 149.75239 | 26233 ft | 405 kts | 61° |
| 2026-04-30 18:20 | -34.56841 | 149.78241 | 25748 ft | 402 kts | 61° |
| 2026-04-30 18:21 | -34.55532 | 149.81218 | 25283 ft | 398 kts | 61° |
| 2026-04-30 18:21 | -34.54231 | 149.84170 | 24818 ft | 395 kts | 61° |
| 2026-04-30 18:21 | -34.52939 | 149.87097 | 24383 ft | 392 kts | 61° |
| 2026-04-30 18:21 | -34.51657 | 149.90000 | 23912 ft | 389 kts | 61° |
| 2026-04-30 18:22 | -34.50387 | 149.92875 | 23448 ft | 384 kts | 61° |
| 2026-04-30 18:22 | -34.47895 | 149.98510 | 22618 ft | 375 kts | 61° |
| 2026-04-30 18:22 | -34.46671 | 150.01278 | 22193 ft | 371 kts | 61° |
| 2026-04-30 18:23 | -34.45461 | 150.04017 | 21776 ft | 367 kts | 61° |
| 2026-04-30 18:23 | -34.44261 | 150.06731 | 21357 ft | 364 kts | 61° |
| 2026-04-30 18:23 | -34.43071 | 150.09415 | 20941 ft | 361 kts | 61° |
| 2026-04-30 18:23 | -34.41886 | 150.12085 | 20515 ft | 359 kts | 61° |
| 2026-04-30 18:24 | -34.39526 | 150.17382 | 19651 ft | 356 kts | 61° |
| 2026-04-30 18:24 | -34.38353 | 150.20011 | 19222 ft | 354 kts | 61° |
| 2026-04-30 18:24 | -34.37186 | 150.22633 | 18796 ft | 353 kts | 62° |
| 2026-04-30 18:25 | -34.36022 | 150.25247 | 18318 ft | 352 kts | 62° |
| 2026-04-30 18:25 | -34.33715 | 150.30421 | 17463 ft | 347 kts | 61° |
| 2026-04-30 18:25 | -34.32573 | 150.32978 | 17050 ft | 344 kts | 61° |
| 2026-04-30 18:26 | -34.30303 | 150.38043 | 16221 ft | 341 kts | 61° |
| 2026-04-30 18:26 | -34.29178 | 150.40554 | 15800 ft | 339 kts | 61° |
| 2026-04-30 18:26 | -34.28044 | 150.43089 | 15053 ft | 349 kts | 61° |
| 2026-04-30 18:27 | -34.25737 | 150.48249 | 14145 ft | 347 kts | 61° |
| 2026-04-30 18:27 | -34.24593 | 150.50809 | 13695 ft | 345 kts | 61° |
| 2026-04-30 18:28 | -34.22330 | 150.55861 | 12837 ft | 339 kts | 61° |
| 2026-04-30 18:28 | -34.21210 | 150.58357 | 12406 ft | 337 kts | 61° |
| 2026-04-30 18:28 | -34.18992 | 150.63302 | 11543 ft | 333 kts | 60° |
| 2026-04-30 18:29 | -34.17891 | 150.65750 | 11107 ft | 331 kts | 60° |
| 2026-04-30 18:29 | -34.14667 | 150.72929 | 10237 ft | 312 kts | 60° |
| 2026-04-30 18:30 | -34.12980 | 150.76670 | 9975 ft | 295 kts | 60° |
| 2026-04-30 18:30 | -34.10744 | 150.81628 | 9213 ft | 286 kts | 60° |
| 2026-04-30 18:31 | -34.09796 | 150.83722 | 8876 ft | 282 kts | 60° |
| 2026-04-30 18:31 | -34.07940 | 150.87833 | 8414 ft | 277 kts | 60° |
| 2026-04-30 18:32 | -34.06115 | 150.91892 | 7933 ft | 273 kts | 60° |
| 2026-04-30 18:32 | -34.05213 | 150.93900 | 7685 ft | 271 kts | 60° |
| 2026-04-30 18:32 | -34.03427 | 150.97869 | 7215 ft | 267 kts | 60° |
| 2026-04-30 18:33 | -34.02540 | 150.99832 | 6980 ft | 266 kts | 60° |
| 2026-04-30 18:33 | -34.00663 | 151.03619 | 6573 ft | 262 kts | 46° |
| 2026-04-30 18:33 | -33.99180 | 151.04861 | 6445 ft | 262 kts | 22° |
| 2026-04-30 18:34 | -33.97422 | 151.05467 | 6322 ft | 263 kts | 15° |
| 2026-04-30 18:34 | -33.93879 | 151.06543 | 6062 ft | 263 kts | 15° |
| 2026-04-30 18:34 | -33.92137 | 151.07070 | 5660 ft | 264 kts | 15° |
| 2026-04-30 18:35 | -33.90334 | 151.07618 | 5231 ft | 264 kts | 15° |
| 2026-04-30 18:35 | -33.88557 | 151.08159 | 4780 ft | 265 kts | 15° |
| 2026-04-30 18:35 | -33.86786 | 151.08702 | 4430 ft | 262 kts | 15° |
| 2026-04-30 18:36 | -33.83388 | 151.09745 | 4135 ft | 241 kts | 15° |
| 2026-04-30 18:36 | -33.81800 | 151.10234 | 4034 ft | 231 kts | 15° |
| 2026-04-30 18:36 | -33.78733 | 151.11177 | 3842 ft | 227 kts | 15° |
| 2026-04-30 18:37 | -33.77205 | 151.11642 | 3743 ft | 227 kts | 15° |
| 2026-04-30 18:37 | -33.75676 | 151.12107 | 3641 ft | 227 kts | 15° |
| 2026-04-30 18:37 | -33.74219 | 151.12623 | 3562 ft | 214 kts | 26° |
| 2026-04-30 18:37 | -33.73150 | 151.13782 | 3361 ft | 207 kts | 60° |
| 2026-04-30 18:38 | -33.72807 | 151.15435 | 3192 ft | 207 kts | 93° |
| 2026-04-30 18:38 | -33.73280 | 151.17044 | 3041 ft | 208 kts | 126° |
| 2026-04-30 18:38 | -33.74427 | 151.18080 | 2872 ft | 210 kts | 160° |
| 2026-04-30 18:38 | -33.75869 | 151.18112 | 2707 ft | 211 kts | 198° |
| 2026-04-30 18:39 | -33.77196 | 151.17550 | 2554 ft | 192 kts | 198° |
| 2026-04-30 18:39 | -33.78378 | 151.17090 | 2423 ft | 166 kts | 198° |
| 2026-04-30 18:39 | -33.79104 | 151.16809 | 2324 ft | 158 kts | 198° |
| 2026-04-30 18:39 | -33.80129 | 151.16412 | 2191 ft | 153 kts | 198° |
| 2026-04-30 18:40 | -33.81132 | 151.16023 | 2077 ft | 151 kts | 198° |
| 2026-04-30 18:40 | -33.82126 | 151.15638 | 1989 ft | 149 kts | 198° |
| 2026-04-30 18:40 | -33.83124 | 151.15281 | 1905 ft | 150 kts | 191° |
| 2026-04-30 18:40 | -33.84145 | 151.15185 | 1761 ft | 149 kts | 179° |
| 2026-04-30 18:41 | -33.85177 | 151.15285 | 1588 ft | 148 kts | 173° |
| 2026-04-30 18:41 | -33.86194 | 151.15474 | 1397 ft | 148 kts | 170° |
| 2026-04-30 18:41 | -33.87202 | 151.15701 | 1207 ft | 147 kts | 169° |
| 2026-04-30 18:41 | -33.88201 | 151.15945 | 1017 ft | 146 kts | 168° |
| 2026-04-30 18:42 | -33.89196 | 151.16196 | 815 ft | 146 kts | 168° |
| 2026-04-30 18:42 | -33.91190 | 151.16708 | 425 ft | 147 kts | 168° |
| 2026-04-30 18:42 | -33.92194 | 151.16967 | 228 ft | 148 kts | 168° |
| 2026-04-30 18:45 | -33.95260 | 151.17777 | 23 ft | 0 kts | 174° |
| 2026-04-30 18:45 | -33.95266 | 151.17771 | 23 ft | 3 kts | 214° |
| 2026-04-30 18:46 | -33.95264 | 151.17755 | 23 ft | 3 kts | 329° |
| 2026-04-30 18:46 | -33.95214 | 151.17755 | 22 ft | 12 kts | 16° |
| 2026-04-30 18:46 | -33.95153 | 151.17842 | 23 ft | 14 kts | 72° |
| 2026-04-30 18:46 | -33.95108 | 151.17930 | 25 ft | 11 kts | 27° |
| 2026-04-30 18:47 | -33.95031 | 151.17929 | 25 ft | 11 kts | 348° |
| 2026-04-30 18:47 | -33.94947 | 151.17908 | 25 ft | 13 kts | 348° |
| 2026-04-30 18:47 | -33.94856 | 151.17884 | 22 ft | 14 kts | 347° |
| 2026-04-30 18:47 | -33.94765 | 151.17858 | 22 ft | 13 kts | 347° |
| 2026-04-30 18:48 | -33.94677 | 151.17834 | 22 ft | 13 kts | 347° |
| 2026-04-30 18:48 | -33.94598 | 151.17813 | 27 ft | 10 kts | 348° |
| 2026-04-30 18:48 | -33.94527 | 151.17795 | 23 ft | 11 kts | 348° |
| 2026-04-30 18:48 | -33.94454 | 151.17776 | 24 ft | 10 kts | 347° |
| 2026-04-30 18:49 | -33.94385 | 151.17755 | 25 ft | 10 kts | 343° |
| 2026-04-30 18:49 | -33.94311 | 151.17730 | 22 ft | 12 kts | 345° |
| 2026-04-30 18:49 | -33.94231 | 151.17705 | 21 ft | 12 kts | 345° |
| 2026-04-30 18:49 | -33.94153 | 151.17680 | 22 ft | 11 kts | 346° |
| 2026-04-30 18:50 | -33.94079 | 151.17658 | 22 ft | 11 kts | 346° |
| 2026-04-30 18:50 | -33.94004 | 151.17636 | 21 ft | 12 kts | 348° |
| 2026-04-30 18:50 | -33.93921 | 151.17622 | 19 ft | 12 kts | 6° |
| 2026-04-30 18:50 | -33.93861 | 151.17680 | 19 ft | 11 kts | 45° |
| 2026-04-30 18:51 | -33.93794 | 151.17701 | 20 ft | 9 kts | 356° |
| 2026-04-30 18:51 | -33.93743 | 151.17689 | 22 ft | 5 kts | 346° |
| 2026-04-30 18:51 | -33.93727 | 151.17684 | 24 ft | 0 kts | 345° |
| 2026-04-30 18:51 | -33.93722 | 151.17683 | 26 ft | 3 kts | 346° |
| 2026-04-30 18:52 | -33.93681 | 151.17663 | 28 ft | 10 kts | 332° |
| 2026-04-30 18:52 | -33.93590 | 151.17614 | 28 ft | 17 kts | 347° |
| 2026-04-30 18:52 | -33.93475 | 151.17595 | 29 ft | 16 kts | 352° |
| 2026-04-30 18:52 | -33.93365 | 151.17581 | 30 ft | 16 kts | 354° |
| 2026-04-30 18:53 | -33.93275 | 151.17571 | 30 ft | 0 kts | 354° |
| 2026-04-30 18:53 | -33.93267 | 151.17573 | 30 ft | 1 kts | 24° |
| 2026-04-30 18:54 | -33.93255 | 151.17585 | 30 ft | 3 kts | 43° |
| 2026-04-30 18:54 | -33.93242 | 151.17613 | 30 ft | 5 kts | 66° |
| 2026-04-30 18:54 | -33.93231 | 151.17645 | 30 ft | 0 kts | 68° |
| 2026-04-30 18:55 | -33.93226 | 151.17661 | 30 ft | 0 kts | 69° |
| 2026-04-30 18:55 | -33.93226 | 151.17662 | 30 ft | 0 kts | 69° |
| 2026-04-30 18:56 | -33.93222 | 151.17675 | 30 ft | 2 kts | 69° |
| 2026-04-30 18:56 | -33.93220 | 151.17679 | 30 ft | 1 kts | 69° |
| 2026-04-30 18:56 | -33.93219 | 151.17684 | 30 ft | 0 kts | 69° |